sensor_id;sensor_type;location;lat;lon;timestamp;P1;durP1;ratioP1;P2;durP2;ratioP2
40204;SDS011;26963;42.666;23.366;2022-10-13T00:00:06;9.73;;;6.60;;
40204;SDS011;26963;42.666;23.366;2022-10-13T00:02:33;10.05;;;6.88;;
40204;SDS011;26963;42.666;23.366;2022-10-13T00:04:58;9.38;;;7.10;;
40204;SDS011;26963;42.666;23.366;2022-10-13T00:07:24;11.05;;;6.93;;
40204;SDS011;26963;42.666;23.366;2022-10-13T00:09:56;10.32;;;6.90;;
40204;SDS011;26963;42.666;23.366;2022-10-13T00:12:21;12.55;;;7.50;;
40204;SDS011;26963;42.666;23.366;2022-10-13T00:14:47;11.13;;;7.30;;
40204;SDS011;26963;42.666;23.366;2022-10-13T00:17:12;13.57;;;8.18;;
40204;SDS011;26963;42.666;23.366;2022-10-13T00:19:53;11.88;;;8.00;;
40204;SDS011;26963;42.666;23.366;2022-10-13T00:22:28;13.02;;;8.40;;
40204;SDS011;26963;42.666;23.366;2022-10-13T00:24:54;10.98;;;8.35;;
40204;SDS011;26963;42.666;23.366;2022-10-13T00:27:20;14.85;;;7.30;;
40204;SDS011;26963;42.666;23.366;2022-10-13T00:29:49;11.77;;;7.18;;
40204;SDS011;26963;42.666;23.366;2022-10-13T00:32:14;12.73;;;9.30;;
40204;SDS011;26963;42.666;23.366;2022-10-13T00:34:41;9.75;;;6.90;;
40204;SDS011;26963;42.666;23.366;2022-10-13T00:37:07;10.73;;;7.07;;
40204;SDS011;26963;42.666;23.366;2022-10-13T00:39:39;8.60;;;6.57;;
40204;SDS011;26963;42.666;23.366;2022-10-13T00:42:09;9.80;;;6.93;;
40204;SDS011;26963;42.666;23.366;2022-10-13T00:47:45;11.90;;;7.55;;
40204;SDS011;26963;42.666;23.366;2022-10-13T00:50:16;9.02;;;6.78;;
40204;SDS011;26963;42.666;23.366;2022-10-13T00:52:44;9.52;;;6.82;;
40204;SDS011;26963;42.666;23.366;2022-10-13T00:55:12;11.45;;;7.57;;
40204;SDS011;26963;42.666;23.366;2022-10-13T00:57:43;11.88;;;7.75;;
40204;SDS011;26963;42.666;23.366;2022-10-13T01:00:14;11.23;;;7.38;;
40204;SDS011;26963;42.666;23.366;2022-10-13T01:02:43;11.00;;;7.03;;
40204;SDS011;26963;42.666;23.366;2022-10-13T01:05:08;9.35;;;6.75;;
40204;SDS011;26963;42.666;23.366;2022-10-13T01:07:36;9.05;;;7.00;;
40204;SDS011;26963;42.666;23.366;2022-10-13T01:10:02;11.68;;;7.38;;
40204;SDS011;26963;42.666;23.366;2022-10-13T01:13:02;10.73;;;8.07;;
40204;SDS011;26963;42.666;23.366;2022-10-13T01:15:45;12.70;;;9.15;;
40204;SDS011;26963;42.666;23.366;2022-10-13T01:18:24;13.48;;;8.90;;
40204;SDS011;26963;42.666;23.366;2022-10-13T01:27:03;11.93;;;8.25;;
40204;SDS011;26963;42.666;23.366;2022-10-13T01:32:35;11.07;;;7.43;;
40204;SDS011;26963;42.666;23.366;2022-10-13T01:38:14;11.32;;;7.50;;
40204;SDS011;26963;42.666;23.366;2022-10-13T01:40:46;10.50;;;7.35;;
40204;SDS011;26963;42.666;23.366;2022-10-13T01:43:26;10.57;;;8.15;;
40204;SDS011;26963;42.666;23.366;2022-10-13T01:48:38;12.10;;;8.40;;
40204;SDS011;26963;42.666;23.366;2022-10-13T01:51:11;11.63;;;8.05;;
40204;SDS011;26963;42.666;23.366;2022-10-13T01:53:40;10.38;;;8.18;;
40204;SDS011;26963;42.666;23.366;2022-10-13T01:56:08;8.80;;;7.72;;
40204;SDS011;26963;42.666;23.366;2022-10-13T01:58:33;16.58;;;8.93;;
40204;SDS011;26963;42.666;23.366;2022-10-13T02:03:35;11.45;;;8.55;;
40204;SDS011;26963;42.666;23.366;2022-10-13T02:06:14;13.25;;;7.57;;
40204;SDS011;26963;42.666;23.366;2022-10-13T02:09:07;10.95;;;7.65;;
40204;SDS011;26963;42.666;23.366;2022-10-13T02:11:36;13.40;;;8.15;;
40204;SDS011;26963;42.666;23.366;2022-10-13T02:14:11;11.50;;;7.47;;
40204;SDS011;26963;42.666;23.366;2022-10-13T02:16:42;11.20;;;8.55;;
40204;SDS011;26963;42.666;23.366;2022-10-13T02:19:12;12.70;;;8.95;;
40204;SDS011;26963;42.666;23.366;2022-10-13T02:21:41;11.63;;;7.80;;
40204;SDS011;26963;42.666;23.366;2022-10-13T02:24:07;14.20;;;8.88;;
40204;SDS011;26963;42.666;23.366;2022-10-13T02:26:34;16.38;;;9.93;;
40204;SDS011;26963;42.666;23.366;2022-10-13T02:29:13;13.18;;;9.10;;
40204;SDS011;26963;42.666;23.366;2022-10-13T02:31:41;14.18;;;9.88;;
40204;SDS011;26963;42.666;23.366;2022-10-13T02:34:08;10.95;;;8.48;;
40204;SDS011;26963;42.666;23.366;2022-10-13T02:36:37;12.00;;;8.32;;
40204;SDS011;26963;42.666;23.366;2022-10-13T02:39:03;14.55;;;10.20;;
40204;SDS011;26963;42.666;23.366;2022-10-13T02:41:32;17.02;;;12.70;;
40204;SDS011;26963;42.666;23.366;2022-10-13T02:44:01;13.98;;;9.93;;
40204;SDS011;26963;42.666;23.366;2022-10-13T02:46:26;15.40;;;11.00;;
40204;SDS011;26963;42.666;23.366;2022-10-13T02:49:10;12.48;;;10.25;;
40204;SDS011;26963;42.666;23.366;2022-10-13T02:51:36;17.48;;;10.18;;
40204;SDS011;26963;42.666;23.366;2022-10-13T02:54:11;14.07;;;9.85;;
40204;SDS011;26963;42.666;23.366;2022-10-13T02:56:36;13.45;;;10.13;;
40204;SDS011;26963;42.666;23.366;2022-10-13T02:59:02;15.38;;;12.02;;
40204;SDS011;26963;42.666;23.366;2022-10-13T03:01:28;13.75;;;10.60;;
40204;SDS011;26963;42.666;23.366;2022-10-13T03:03:53;13.20;;;11.00;;
40204;SDS011;26963;42.666;23.366;2022-10-13T03:06:19;14.38;;;11.55;;
40204;SDS011;26963;42.666;23.366;2022-10-13T03:08:45;17.95;;;12.45;;
40204;SDS011;26963;42.666;23.366;2022-10-13T03:11:10;15.40;;;10.93;;
40204;SDS011;26963;42.666;23.366;2022-10-13T03:13:36;19.20;;;13.85;;
40204;SDS011;26963;42.666;23.366;2022-10-13T03:16:02;15.63;;;12.60;;
40204;SDS011;26963;42.666;23.366;2022-10-13T03:18:27;16.55;;;12.50;;
40204;SDS011;26963;42.666;23.366;2022-10-13T03:21:01;13.52;;;11.48;;
40204;SDS011;26963;42.666;23.366;2022-10-13T03:23:31;17.08;;;11.48;;
40204;SDS011;26963;42.666;23.366;2022-10-13T03:26:00;13.02;;;10.95;;
40204;SDS011;26963;42.666;23.366;2022-10-13T03:28:26;15.57;;;11.00;;
40204;SDS011;26963;42.666;23.366;2022-10-13T03:31:05;15.63;;;11.18;;
40204;SDS011;26963;42.666;23.366;2022-10-13T03:33:33;12.52;;;10.07;;
40204;SDS011;26963;42.666;23.366;2022-10-13T03:36:03;14.57;;;9.95;;
40204;SDS011;26963;42.666;23.366;2022-10-13T03:38:30;16.17;;;12.10;;
40204;SDS011;26963;42.666;23.366;2022-10-13T03:40:56;16.45;;;12.00;;
40204;SDS011;26963;42.666;23.366;2022-10-13T03:43:25;16.05;;;12.63;;
40204;SDS011;26963;42.666;23.366;2022-10-13T03:45:57;16.13;;;13.00;;
40204;SDS011;26963;42.666;23.366;2022-10-13T03:48:24;18.20;;;13.65;;
40204;SDS011;26963;42.666;23.366;2022-10-13T03:50:50;20.23;;;12.88;;
40204;SDS011;26963;42.666;23.366;2022-10-13T03:53:15;16.38;;;11.88;;
40204;SDS011;26963;42.666;23.366;2022-10-13T03:55:41;15.88;;;11.52;;
40204;SDS011;26963;42.666;23.366;2022-10-13T03:58:07;21.02;;;13.57;;
40204;SDS011;26963;42.666;23.366;2022-10-13T04:00:36;20.77;;;14.95;;
40204;SDS011;26963;42.666;23.366;2022-10-13T04:03:01;20.63;;;13.98;;
40204;SDS011;26963;42.666;23.366;2022-10-13T04:05:27;18.40;;;13.65;;
40204;SDS011;26963;42.666;23.366;2022-10-13T04:07:53;20.63;;;14.15;;
40204;SDS011;26963;42.666;23.366;2022-10-13T04:10:18;24.00;;;15.35;;
40204;SDS011;26963;42.666;23.366;2022-10-13T04:12:44;23.88;;;16.92;;
40204;SDS011;26963;42.666;23.366;2022-10-13T04:15:13;25.10;;;17.42;;
40204;SDS011;26963;42.666;23.366;2022-10-13T04:17:38;24.80;;;16.92;;
40204;SDS011;26963;42.666;23.366;2022-10-13T04:20:04;16.27;;;12.95;;
40204;SDS011;26963;42.666;23.366;2022-10-13T04:22:30;20.38;;;13.95;;
40204;SDS011;26963;42.666;23.366;2022-10-13T04:24:55;17.38;;;14.07;;
40204;SDS011;26963;42.666;23.366;2022-10-13T04:27:23;19.20;;;15.35;;
40204;SDS011;26963;42.666;23.366;2022-10-13T04:29:50;21.05;;;15.75;;
40204;SDS011;26963;42.666;23.366;2022-10-13T04:32:16;27.23;;;15.93;;
40204;SDS011;26963;42.666;23.366;2022-10-13T04:34:42;23.08;;;16.10;;
40204;SDS011;26963;42.666;23.366;2022-10-13T04:37:11;21.52;;;14.68;;
40204;SDS011;26963;42.666;23.366;2022-10-13T04:39:36;28.08;;;17.63;;
40204;SDS011;26963;42.666;23.366;2022-10-13T04:42:05;32.45;;;21.13;;
40204;SDS011;26963;42.666;23.366;2022-10-13T04:44:30;29.90;;;21.60;;
40204;SDS011;26963;42.666;23.366;2022-10-13T04:46:56;30.27;;;22.77;;
40204;SDS011;26963;42.666;23.366;2022-10-13T04:49:22;30.95;;;21.05;;
40204;SDS011;26963;42.666;23.366;2022-10-13T04:51:54;24.48;;;18.08;;
40204;SDS011;26963;42.666;23.366;2022-10-13T04:54:19;25.35;;;18.52;;
40204;SDS011;26963;42.666;23.366;2022-10-13T04:56:49;27.35;;;18.52;;
40204;SDS011;26963;42.666;23.366;2022-10-13T04:59:14;26.67;;;15.23;;
40204;SDS011;26963;42.666;23.366;2022-10-13T05:01:40;22.27;;;15.18;;
40204;SDS011;26963;42.666;23.366;2022-10-13T05:04:09;25.23;;;15.38;;
40204;SDS011;26963;42.666;23.366;2022-10-13T05:06:42;28.25;;;17.48;;
40204;SDS011;26963;42.666;23.366;2022-10-13T05:09:08;21.10;;;15.80;;
40204;SDS011;26963;42.666;23.366;2022-10-13T05:11:39;24.40;;;15.32;;
40204;SDS011;26963;42.666;23.366;2022-10-13T05:14:08;22.73;;;15.75;;
40204;SDS011;26963;42.666;23.366;2022-10-13T05:16:34;29.50;;;17.17;;
40204;SDS011;26963;42.666;23.366;2022-10-13T05:19:00;24.23;;;15.77;;
40204;SDS011;26963;42.666;23.366;2022-10-13T05:21:26;20.52;;;15.73;;
40204;SDS011;26963;42.666;23.366;2022-10-13T05:23:56;22.75;;;14.13;;
40204;SDS011;26963;42.666;23.366;2022-10-13T05:26:23;26.23;;;15.07;;
40204;SDS011;26963;42.666;23.366;2022-10-13T05:28:54;20.45;;;16.23;;
40204;SDS011;26963;42.666;23.366;2022-10-13T05:31:22;24.95;;;16.73;;
40204;SDS011;26963;42.666;23.366;2022-10-13T05:33:49;28.98;;;18.17;;
40204;SDS011;26963;42.666;23.366;2022-10-13T05:36:17;20.42;;;17.02;;
40204;SDS011;26963;42.666;23.366;2022-10-13T05:38:48;20.63;;;15.70;;
40204;SDS011;26963;42.666;23.366;2022-10-13T05:41:42;27.00;;;15.88;;
40204;SDS011;26963;42.666;23.366;2022-10-13T05:44:11;24.00;;;16.30;;
40204;SDS011;26963;42.666;23.366;2022-10-13T05:46:36;22.80;;;15.77;;
40204;SDS011;26963;42.666;23.366;2022-10-13T05:49:08;27.27;;;17.23;;
40204;SDS011;26963;42.666;23.366;2022-10-13T05:51:54;28.30;;;18.02;;
40204;SDS011;26963;42.666;23.366;2022-10-13T05:54:46;24.98;;;17.75;;
40204;SDS011;26963;42.666;23.366;2022-10-13T05:57:18;24.80;;;17.95;;
40204;SDS011;26963;42.666;23.366;2022-10-13T06:00:09;24.35;;;17.70;;
40204;SDS011;26963;42.666;23.366;2022-10-13T06:02:40;24.45;;;17.55;;
40204;SDS011;26963;42.666;23.366;2022-10-13T06:05:34;25.60;;;17.90;;
40204;SDS011;26963;42.666;23.366;2022-10-13T06:08:00;27.42;;;18.40;;
40204;SDS011;26963;42.666;23.366;2022-10-13T06:10:28;26.05;;;19.25;;
40204;SDS011;26963;42.666;23.366;2022-10-13T06:12:54;31.15;;;19.67;;
40204;SDS011;26963;42.666;23.366;2022-10-13T06:15:22;25.98;;;19.88;;
40204;SDS011;26963;42.666;23.366;2022-10-13T06:17:54;27.88;;;19.85;;
40204;SDS011;26963;42.666;23.366;2022-10-13T06:20:22;27.60;;;18.88;;
40204;SDS011;26963;42.666;23.366;2022-10-13T06:22:48;28.65;;;20.88;;
40204;SDS011;26963;42.666;23.366;2022-10-13T06:25:15;30.55;;;23.42;;
40204;SDS011;26963;42.666;23.366;2022-10-13T06:27:44;31.65;;;21.30;;
40204;SDS011;26963;42.666;23.366;2022-10-13T06:30:27;31.73;;;24.30;;
40204;SDS011;26963;42.666;23.366;2022-10-13T06:33:02;27.25;;;19.17;;
40204;SDS011;26963;42.666;23.366;2022-10-13T06:35:31;28.17;;;18.83;;
40204;SDS011;26963;42.666;23.366;2022-10-13T06:38:06;28.13;;;20.02;;
40204;SDS011;26963;42.666;23.366;2022-10-13T06:40:35;30.40;;;19.35;;
40204;SDS011;26963;42.666;23.366;2022-10-13T06:43:02;27.60;;;19.98;;
40204;SDS011;26963;42.666;23.366;2022-10-13T06:45:28;25.05;;;18.48;;
40204;SDS011;26963;42.666;23.366;2022-10-13T06:47:54;23.17;;;18.08;;
40204;SDS011;26963;42.666;23.366;2022-10-13T06:50:23;24.75;;;18.67;;
40204;SDS011;26963;42.666;23.366;2022-10-13T06:52:49;30.65;;;20.58;;
40204;SDS011;26963;42.666;23.366;2022-10-13T06:55:17;34.15;;;20.58;;
40204;SDS011;26963;42.666;23.366;2022-10-13T06:57:42;35.95;;;22.40;;
40204;SDS011;26963;42.666;23.366;2022-10-13T07:00:09;36.50;;;24.42;;
40204;SDS011;26963;42.666;23.366;2022-10-13T07:02:38;32.58;;;22.48;;
40204;SDS011;26963;42.666;23.366;2022-10-13T07:05:03;30.83;;;22.15;;
40204;SDS011;26963;42.666;23.366;2022-10-13T07:07:29;33.15;;;23.00;;
40204;SDS011;26963;42.666;23.366;2022-10-13T07:09:55;33.78;;;23.92;;
40204;SDS011;26963;42.666;23.366;2022-10-13T07:12:20;30.67;;;24.15;;
40204;SDS011;26963;42.666;23.366;2022-10-13T07:14:49;32.90;;;23.48;;
40204;SDS011;26963;42.666;23.366;2022-10-13T07:17:17;36.58;;;25.38;;
40204;SDS011;26963;42.666;23.366;2022-10-13T07:19:42;38.45;;;25.98;;
40204;SDS011;26963;42.666;23.366;2022-10-13T07:22:15;37.25;;;27.33;;
40204;SDS011;26963;42.666;23.366;2022-10-13T07:24:41;40.20;;;28.55;;
40204;SDS011;26963;42.666;23.366;2022-10-13T07:27:10;37.00;;;28.33;;
40204;SDS011;26963;42.666;23.366;2022-10-13T07:29:36;43.67;;;30.08;;
40204;SDS011;26963;42.666;23.366;2022-10-13T07:32:01;41.35;;;28.20;;
40204;SDS011;26963;42.666;23.366;2022-10-13T07:34:27;37.88;;;28.00;;
40204;SDS011;26963;42.666;23.366;2022-10-13T07:36:53;36.70;;;27.25;;
40204;SDS011;26963;42.666;23.366;2022-10-13T07:39:21;41.13;;;26.92;;
40204;SDS011;26963;42.666;23.366;2022-10-13T07:41:47;41.17;;;26.60;;
40204;SDS011;26963;42.666;23.366;2022-10-13T07:44:13;36.08;;;26.17;;
40204;SDS011;26963;42.666;23.366;2022-10-13T07:46:42;37.75;;;26.40;;
40204;SDS011;26963;42.666;23.366;2022-10-13T07:49:13;39.17;;;26.35;;
40204;SDS011;26963;42.666;23.366;2022-10-13T07:51:44;37.25;;;24.98;;
40204;SDS011;26963;42.666;23.366;2022-10-13T07:54:14;31.40;;;25.98;;
40204;SDS011;26963;42.666;23.366;2022-10-13T07:56:43;36.80;;;25.88;;
40204;SDS011;26963;42.666;23.366;2022-10-13T07:59:09;31.85;;;24.98;;
40204;SDS011;26963;42.666;23.366;2022-10-13T08:01:39;31.95;;;24.98;;
40204;SDS011;26963;42.666;23.366;2022-10-13T08:04:15;33.60;;;24.58;;
40204;SDS011;26963;42.666;23.366;2022-10-13T08:06:41;31.15;;;22.88;;
40204;SDS011;26963;42.666;23.366;2022-10-13T08:09:12;34.63;;;24.13;;
40204;SDS011;26963;42.666;23.366;2022-10-13T08:11:37;32.88;;;24.70;;
40204;SDS011;26963;42.666;23.366;2022-10-13T08:14:06;30.40;;;24.30;;
40204;SDS011;26963;42.666;23.366;2022-10-13T08:16:32;33.85;;;23.73;;
40204;SDS011;26963;42.666;23.366;2022-10-13T08:19:02;28.75;;;21.90;;
40204;SDS011;26963;42.666;23.366;2022-10-13T08:21:33;29.50;;;23.60;;
40204;SDS011;26963;42.666;23.366;2022-10-13T08:23:59;30.65;;;23.45;;
40204;SDS011;26963;42.666;23.366;2022-10-13T08:26:26;28.50;;;23.38;;
40204;SDS011;26963;42.666;23.366;2022-10-13T08:28:53;27.08;;;21.48;;
40204;SDS011;26963;42.666;23.366;2022-10-13T08:31:21;32.33;;;22.60;;
40204;SDS011;26963;42.666;23.366;2022-10-13T08:33:49;29.30;;;22.17;;
40204;SDS011;26963;42.666;23.366;2022-10-13T08:36:16;29.85;;;21.92;;
40204;SDS011;26963;42.666;23.366;2022-10-13T08:38:43;27.65;;;21.88;;
40204;SDS011;26963;42.666;23.366;2022-10-13T08:41:16;30.00;;;21.45;;
40204;SDS011;26963;42.666;23.366;2022-10-13T08:43:47;29.15;;;22.33;;
40204;SDS011;26963;42.666;23.366;2022-10-13T08:46:17;28.48;;;21.65;;
40204;SDS011;26963;42.666;23.366;2022-10-13T08:48:52;30.20;;;21.92;;
40204;SDS011;26963;42.666;23.366;2022-10-13T08:51:24;25.55;;;19.15;;
40204;SDS011;26963;42.666;23.366;2022-10-13T08:56:38;30.33;;;20.58;;
40204;SDS011;26963;42.666;23.366;2022-10-13T08:59:09;28.50;;;19.73;;
40204;SDS011;26963;42.666;23.366;2022-10-13T09:01:44;29.38;;;19.77;;
40204;SDS011;26963;42.666;23.366;2022-10-13T09:04:31;25.30;;;18.98;;
40204;SDS011;26963;42.666;23.366;2022-10-13T09:09:34;28.05;;;19.83;;
40204;SDS011;26963;42.666;23.366;2022-10-13T09:12:04;25.05;;;19.30;;
40204;SDS011;26963;42.666;23.366;2022-10-13T09:14:31;23.48;;;19.00;;
40204;SDS011;26963;42.666;23.366;2022-10-13T09:20:05;25.17;;;19.98;;
40204;SDS011;26963;42.666;23.366;2022-10-13T09:27:43;30.70;;;21.10;;
40204;SDS011;26963;42.666;23.366;2022-10-13T09:35:39;23.38;;;17.80;;
40204;SDS011;26963;42.666;23.366;2022-10-13T09:38:19;21.80;;;17.60;;
40204;SDS011;26963;42.666;23.366;2022-10-13T09:41:32;21.33;;;16.73;;
40204;SDS011;26963;42.666;23.366;2022-10-13T09:43:58;23.85;;;16.38;;
40204;SDS011;26963;42.666;23.366;2022-10-13T09:46:29;19.90;;;15.80;;
40204;SDS011;26963;42.666;23.366;2022-10-13T09:49:05;19.63;;;14.38;;
40204;SDS011;26963;42.666;23.366;2022-10-13T09:52:15;19.48;;;14.45;;
40204;SDS011;26963;42.666;23.366;2022-10-13T09:54:48;19.15;;;13.93;;
40204;SDS011;26963;42.666;23.366;2022-10-13T10:02:38;20.02;;;13.20;;
40204;SDS011;26963;42.666;23.366;2022-10-13T10:05:31;16.65;;;13.00;;
40204;SDS011;26963;42.666;23.366;2022-10-13T10:11:21;18.00;;;13.27;;
40204;SDS011;26963;42.666;23.366;2022-10-13T10:13:58;20.45;;;13.52;;
40204;SDS011;26963;42.666;23.366;2022-10-13T10:16:40;24.15;;;14.13;;
40204;SDS011;26963;42.666;23.366;2022-10-13T10:21:49;28.00;;;17.70;;
40204;SDS011;26963;42.666;23.366;2022-10-13T10:27:25;17.42;;;12.98;;
40204;SDS011;26963;42.666;23.366;2022-10-13T10:30:17;17.95;;;13.70;;
40204;SDS011;26963;42.666;23.366;2022-10-13T10:32:46;21.90;;;13.90;;
40204;SDS011;26963;42.666;23.366;2022-10-13T10:35:21;21.85;;;13.10;;
40204;SDS011;26963;42.666;23.366;2022-10-13T10:48:53;18.08;;;11.40;;
40204;SDS011;26963;42.666;23.366;2022-10-13T10:57:07;17.25;;;10.27;;
40204;SDS011;26963;42.666;23.366;2022-10-13T11:08:42;16.75;;;11.20;;
40204;SDS011;26963;42.666;23.366;2022-10-13T11:19:30;15.82;;;10.65;;
40204;SDS011;26963;42.666;23.366;2022-10-13T11:37:46;13.88;;;10.13;;
40204;SDS011;26963;42.666;23.366;2022-10-13T11:43:38;13.27;;;9.95;;
40204;SDS011;26963;42.666;23.366;2022-10-13T11:55:18;14.65;;;9.20;;
40204;SDS011;26963;42.666;23.366;2022-10-13T11:58:08;13.50;;;8.18;;
40204;SDS011;26963;42.666;23.366;2022-10-13T12:03:44;14.63;;;8.18;;
40204;SDS011;26963;42.666;23.366;2022-10-13T12:08:50;10.93;;;8.35;;
40204;SDS011;26963;42.666;23.366;2022-10-13T12:11:26;11.82;;;8.57;;
40204;SDS011;26963;42.666;23.366;2022-10-13T12:14:18;12.20;;;8.48;;
40204;SDS011;26963;42.666;23.366;2022-10-13T12:16:56;11.00;;;7.75;;
40204;SDS011;26963;42.666;23.366;2022-10-13T12:19:23;9.98;;;7.28;;
40204;SDS011;26963;42.666;23.366;2022-10-13T12:21:53;13.02;;;7.75;;
40204;SDS011;26963;42.666;23.366;2022-10-13T12:24:25;10.70;;;8.38;;
40204;SDS011;26963;42.666;23.366;2022-10-13T12:29:26;12.10;;;8.38;;
40204;SDS011;26963;42.666;23.366;2022-10-13T12:31:54;10.07;;;8.35;;
40204;SDS011;26963;42.666;23.366;2022-10-13T12:34:54;12.32;;;7.82;;
40204;SDS011;26963;42.666;23.366;2022-10-13T12:37:24;14.57;;;8.63;;
40204;SDS011;26963;42.666;23.366;2022-10-13T12:39:53;12.45;;;7.97;;
40204;SDS011;26963;42.666;23.366;2022-10-13T12:42:22;15.48;;;9.07;;
40204;SDS011;26963;42.666;23.366;2022-10-13T12:44:57;11.75;;;8.77;;
40204;SDS011;26963;42.666;23.366;2022-10-13T12:47:45;11.68;;;8.27;;
40204;SDS011;26963;42.666;23.366;2022-10-13T12:55:49;14.30;;;8.10;;
40204;SDS011;26963;42.666;23.366;2022-10-13T12:58:28;12.20;;;8.32;;
40204;SDS011;26963;42.666;23.366;2022-10-13T13:03:42;10.55;;;8.43;;
40204;SDS011;26963;42.666;23.366;2022-10-13T13:08:40;13.88;;;9.15;;
40204;SDS011;26963;42.666;23.366;2022-10-13T13:11:20;12.32;;;8.98;;
40204;SDS011;26963;42.666;23.366;2022-10-13T13:13:48;13.13;;;8.07;;
40204;SDS011;26963;42.666;23.366;2022-10-13T13:16:20;15.50;;;8.27;;
40204;SDS011;26963;42.666;23.366;2022-10-13T13:18:49;12.93;;;8.57;;
40204;SDS011;26963;42.666;23.366;2022-10-13T13:21:15;11.68;;;8.25;;
40204;SDS011;26963;42.666;23.366;2022-10-13T13:23:44;13.95;;;8.65;;
40204;SDS011;26963;42.666;23.366;2022-10-13T13:28:40;9.25;;;8.10;;
40204;SDS011;26963;42.666;23.366;2022-10-13T13:31:11;12.52;;;8.25;;
40204;SDS011;26963;42.666;23.366;2022-10-13T13:33:44;13.02;;;9.10;;
40204;SDS011;26963;42.666;23.366;2022-10-13T13:36:13;12.20;;;8.23;;
40204;SDS011;26963;42.666;23.366;2022-10-13T13:38:40;13.43;;;8.45;;
40204;SDS011;26963;42.666;23.366;2022-10-13T13:41:07;14.90;;;8.10;;
40204;SDS011;26963;42.666;23.366;2022-10-13T13:43:40;12.17;;;8.37;;
40204;SDS011;26963;42.666;23.366;2022-10-13T13:46:13;13.98;;;8.38;;
40204;SDS011;26963;42.666;23.366;2022-10-13T13:48:43;12.82;;;8.77;;
40204;SDS011;26963;42.666;23.366;2022-10-13T13:51:12;15.10;;;9.93;;
40204;SDS011;26963;42.666;23.366;2022-10-13T13:53:37;19.27;;;13.90;;
40204;SDS011;26963;42.666;23.366;2022-10-13T13:56:13;13.77;;;9.38;;
40204;SDS011;26963;42.666;23.366;2022-10-13T13:58:43;11.20;;;8.07;;
40204;SDS011;26963;42.666;23.366;2022-10-13T14:01:15;11.75;;;8.90;;
40204;SDS011;26963;42.666;23.366;2022-10-13T14:03:40;16.40;;;8.77;;
40204;SDS011;26963;42.666;23.366;2022-10-13T14:06:14;13.27;;;7.93;;
40204;SDS011;26963;42.666;23.366;2022-10-13T14:08:41;11.05;;;7.82;;
40204;SDS011;26963;42.666;23.366;2022-10-13T14:11:18;10.55;;;8.07;;
40204;SDS011;26963;42.666;23.366;2022-10-13T14:13:43;10.93;;;7.68;;
40204;SDS011;26963;42.666;23.366;2022-10-13T14:16:18;11.35;;;9.15;;
40204;SDS011;26963;42.666;23.366;2022-10-13T14:18:52;12.82;;;8.02;;
40204;SDS011;26963;42.666;23.366;2022-10-13T14:21:24;14.75;;;8.50;;
40204;SDS011;26963;42.666;23.366;2022-10-13T14:23:50;10.85;;;8.15;;
40204;SDS011;26963;42.666;23.366;2022-10-13T14:26:22;12.70;;;8.73;;
40204;SDS011;26963;42.666;23.366;2022-10-13T14:28:51;15.20;;;9.02;;
40204;SDS011;26963;42.666;23.366;2022-10-13T14:31:22;14.80;;;8.73;;
40204;SDS011;26963;42.666;23.366;2022-10-13T14:36:17;14.98;;;8.38;;
40204;SDS011;26963;42.666;23.366;2022-10-13T14:38:43;10.85;;;7.65;;
40204;SDS011;26963;42.666;23.366;2022-10-13T14:41:14;13.73;;;7.93;;
40204;SDS011;26963;42.666;23.366;2022-10-13T14:44:06;16.15;;;8.50;;
40204;SDS011;26963;42.666;23.366;2022-10-13T14:46:41;12.57;;;9.45;;
40204;SDS011;26963;42.666;23.366;2022-10-13T14:49:12;13.85;;;9.93;;
40204;SDS011;26963;42.666;23.366;2022-10-13T14:51:38;18.52;;;10.63;;
40204;SDS011;26963;42.666;23.366;2022-10-13T14:54:07;15.05;;;10.98;;
40204;SDS011;26963;42.666;23.366;2022-10-13T14:56:39;15.35;;;9.32;;
40204;SDS011;26963;42.666;23.366;2022-10-13T14:59:05;15.05;;;7.75;;
40204;SDS011;26963;42.666;23.366;2022-10-13T15:01:31;12.55;;;8.10;;
40204;SDS011;26963;42.666;23.366;2022-10-13T15:03:58;13.48;;;7.25;;
40204;SDS011;26963;42.666;23.366;2022-10-13T15:06:33;11.90;;;8.00;;
40204;SDS011;26963;42.666;23.366;2022-10-13T15:09:03;8.95;;;6.47;;
40204;SDS011;26963;42.666;23.366;2022-10-13T15:11:30;9.07;;;6.80;;
40204;SDS011;26963;42.666;23.366;2022-10-13T15:14:04;11.48;;;7.45;;
40204;SDS011;26963;42.666;23.366;2022-10-13T15:16:30;12.38;;;7.63;;
40204;SDS011;26963;42.666;23.366;2022-10-13T15:19:01;10.15;;;7.85;;
40204;SDS011;26963;42.666;23.366;2022-10-13T15:21:31;14.75;;;7.57;;
40204;SDS011;26963;42.666;23.366;2022-10-13T15:23:57;9.38;;;6.75;;
40204;SDS011;26963;42.666;23.366;2022-10-13T15:26:25;13.10;;;7.57;;
40204;SDS011;26963;42.666;23.366;2022-10-13T15:28:56;10.45;;;7.10;;
40204;SDS011;26963;42.666;23.366;2022-10-13T15:31:22;7.72;;;6.25;;
40204;SDS011;26963;42.666;23.366;2022-10-13T15:33:49;12.15;;;7.25;;
40204;SDS011;26963;42.666;23.366;2022-10-13T15:36:19;10.23;;;7.30;;
40204;SDS011;26963;42.666;23.366;2022-10-13T15:38:46;9.80;;;6.75;;
40204;SDS011;26963;42.666;23.366;2022-10-13T15:41:12;8.10;;;5.70;;
40204;SDS011;26963;42.666;23.366;2022-10-13T15:43:41;8.20;;;6.20;;
40204;SDS011;26963;42.666;23.366;2022-10-13T15:46:11;10.45;;;6.50;;
40204;SDS011;26963;42.666;23.366;2022-10-13T15:48:48;13.15;;;7.60;;
40204;SDS011;26963;42.666;23.366;2022-10-13T15:51:16;10.25;;;6.18;;
40204;SDS011;26963;42.666;23.366;2022-10-13T15:53:46;10.35;;;6.70;;
40204;SDS011;26963;42.666;23.366;2022-10-13T15:56:12;7.90;;;5.88;;
40204;SDS011;26963;42.666;23.366;2022-10-13T15:58:38;9.77;;;5.95;;
40204;SDS011;26963;42.666;23.366;2022-10-13T16:03:55;9.57;;;5.77;;
40204;SDS011;26963;42.666;23.366;2022-10-13T16:06:22;14.73;;;6.18;;
40204;SDS011;26963;42.666;23.366;2022-10-13T16:08:48;8.10;;;5.93;;
40204;SDS011;26963;42.666;23.366;2022-10-13T16:11:18;11.45;;;5.40;;
40204;SDS011;26963;42.666;23.366;2022-10-13T16:13:45;10.30;;;5.63;;
40204;SDS011;26963;42.666;23.366;2022-10-13T16:16:12;9.65;;;5.78;;
40204;SDS011;26963;42.666;23.366;2022-10-13T16:18:43;8.57;;;5.85;;
40204;SDS011;26963;42.666;23.366;2022-10-13T16:21:24;15.80;;;9.43;;
40204;SDS011;26963;42.666;23.366;2022-10-13T16:23:52;12.88;;;7.90;;
40204;SDS011;26963;42.666;23.366;2022-10-13T16:26:22;9.45;;;6.00;;
40204;SDS011;26963;42.666;23.366;2022-10-13T16:28:53;11.15;;;6.55;;
40204;SDS011;26963;42.666;23.366;2022-10-13T16:31:25;12.50;;;6.10;;
40204;SDS011;26963;42.666;23.366;2022-10-13T16:33:51;13.23;;;6.70;;
40204;SDS011;26963;42.666;23.366;2022-10-13T16:36:19;11.48;;;6.13;;
40204;SDS011;26963;42.666;23.366;2022-10-13T16:38:48;11.50;;;6.63;;
40204;SDS011;26963;42.666;23.366;2022-10-13T16:41:16;10.10;;;7.05;;
40204;SDS011;26963;42.666;23.366;2022-10-13T16:43:45;11.82;;;7.15;;
40204;SDS011;26963;42.666;23.366;2022-10-13T16:46:16;19.50;;;11.13;;
40204;SDS011;26963;42.666;23.366;2022-10-13T16:48:43;14.43;;;8.20;;
40204;SDS011;26963;42.666;23.366;2022-10-13T16:51:13;16.52;;;8.05;;
40204;SDS011;26963;42.666;23.366;2022-10-13T16:53:41;8.10;;;6.63;;
40204;SDS011;26963;42.666;23.366;2022-10-13T16:56:11;9.35;;;7.57;;